sensor_id;sensor_type;location;lat;lon;timestamp;P1;durP1;ratioP1;P2;durP2;ratioP2
76610;SDS011;65503;48.534;9.062;2024-01-15T00:02:00;27.00;;;7.82;;
76610;SDS011;65503;48.534;9.062;2024-01-15T00:04:26;25.00;;;8.63;;
76610;SDS011;65503;48.534;9.062;2024-01-15T00:06:53;24.10;;;8.82;;
76610;SDS011;65503;48.534;9.062;2024-01-15T00:09:20;22.60;;;8.20;;
76610;SDS011;65503;48.534;9.062;2024-01-15T00:11:46;24.77;;;8.48;;
76610;SDS011;65503;48.534;9.062;2024-01-15T00:14:13;21.20;;;7.45;;
76610;SDS011;65503;48.534;9.062;2024-01-15T00:16:40;24.58;;;8.43;;
76610;SDS011;65503;48.534;9.062;2024-01-15T00:19:07;25.73;;;9.35;;
76610;SDS011;65503;48.534;9.062;2024-01-15T00:21:34;21.88;;;8.05;;
76610;SDS011;65503;48.534;9.062;2024-01-15T00:24:00;25.73;;;9.38;;
76610;SDS011;65503;48.534;9.062;2024-01-15T00:26:27;24.88;;;7.88;;
76610;SDS011;65503;48.534;9.062;2024-01-15T00:28:53;23.85;;;8.35;;
76610;SDS011;65503;48.534;9.062;2024-01-15T00:31:20;21.70;;;8.32;;
76610;SDS011;65503;48.534;9.062;2024-01-15T00:33:47;23.13;;;8.13;;
76610;SDS011;65503;48.534;9.062;2024-01-15T00:36:13;22.80;;;8.18;;
76610;SDS011;65503;48.534;9.062;2024-01-15T00:38:41;23.95;;;7.40;;
76610;SDS011;65503;48.534;9.062;2024-01-15T00:41:07;18.55;;;7.30;;
76610;SDS011;65503;48.534;9.062;2024-01-15T00:43:34;23.65;;;7.43;;
76610;SDS011;65503;48.534;9.062;2024-01-15T00:46:03;20.35;;;7.72;;
76610;SDS011;65503;48.534;9.062;2024-01-15T00:48:30;22.02;;;7.97;;
76610;SDS011;65503;48.534;9.062;2024-01-15T00:50:58;24.52;;;8.43;;
76610;SDS011;65503;48.534;9.062;2024-01-15T00:53:25;20.15;;;8.20;;
76610;SDS011;65503;48.534;9.062;2024-01-15T00:55:51;21.77;;;7.45;;
76610;SDS011;65503;48.534;9.062;2024-01-15T00:58:18;25.30;;;8.13;;
76610;SDS011;65503;48.534;9.062;2024-01-15T01:00:45;26.38;;;8.57;;
76610;SDS011;65503;48.534;9.062;2024-01-15T01:03:12;25.70;;;8.98;;
76610;SDS011;65503;48.534;9.062;2024-01-15T01:05:39;21.67;;;7.60;;
76610;SDS011;65503;48.534;9.062;2024-01-15T01:08:05;24.75;;;7.80;;
76610;SDS011;65503;48.534;9.062;2024-01-15T01:10:32;21.48;;;7.72;;
76610;SDS011;65503;48.534;9.062;2024-01-15T01:12:58;23.42;;;8.25;;
76610;SDS011;65503;48.534;9.062;2024-01-15T01:15:25;26.55;;;8.70;;
76610;SDS011;65503;48.534;9.062;2024-01-15T01:17:51;27.50;;;8.52;;
76610;SDS011;65503;48.534;9.062;2024-01-15T01:20:18;23.23;;;8.70;;
76610;SDS011;65503;48.534;9.062;2024-01-15T01:22:44;20.30;;;7.65;;
76610;SDS011;65503;48.534;9.062;2024-01-15T01:25:11;20.00;;;7.45;;
76610;SDS011;65503;48.534;9.062;2024-01-15T01:27:38;24.92;;;7.68;;
76610;SDS011;65503;48.534;9.062;2024-01-15T01:30:05;21.75;;;7.57;;
76610;SDS011;65503;48.534;9.062;2024-01-15T01:32:32;18.75;;;6.75;;
76610;SDS011;65503;48.534;9.062;2024-01-15T01:34:59;22.45;;;7.22;;
76610;SDS011;65503;48.534;9.062;2024-01-15T01:37:26;18.48;;;7.13;;
76610;SDS011;65503;48.534;9.062;2024-01-15T01:39:52;22.45;;;7.30;;
76610;SDS011;65503;48.534;9.062;2024-01-15T01:42:19;23.35;;;7.80;;
76610;SDS011;65503;48.534;9.062;2024-01-15T01:44:48;21.55;;;7.93;;
76610;SDS011;65503;48.534;9.062;2024-01-15T01:47:14;21.40;;;8.07;;
76610;SDS011;65503;48.534;9.062;2024-01-15T01:49:41;21.33;;;7.50;;
76610;SDS011;65503;48.534;9.062;2024-01-15T01:52:08;25.08;;;7.75;;
76610;SDS011;65503;48.534;9.062;2024-01-15T01:54:35;23.77;;;7.25;;
76610;SDS011;65503;48.534;9.062;2024-01-15T01:59:33;22.05;;;7.32;;
76610;SDS011;65503;48.534;9.062;2024-01-15T02:02:02;19.20;;;6.90;;
76610;SDS011;65503;48.534;9.062;2024-01-15T02:04:30;18.48;;;6.72;;
76610;SDS011;65503;48.534;9.062;2024-01-15T02:06:58;23.58;;;6.95;;
76610;SDS011;65503;48.534;9.062;2024-01-15T02:09:25;22.58;;;7.38;;
76610;SDS011;65503;48.534;9.062;2024-01-15T02:11:52;23.52;;;7.05;;
76610;SDS011;65503;48.534;9.062;2024-01-15T02:14:18;23.40;;;7.03;;
76610;SDS011;65503;48.534;9.062;2024-01-15T02:16:45;17.73;;;5.97;;
76610;SDS011;65503;48.534;9.062;2024-01-15T02:19:15;22.13;;;7.72;;
76610;SDS011;65503;48.534;9.062;2024-01-15T02:21:45;23.70;;;7.50;;
76610;SDS011;65503;48.534;9.062;2024-01-15T02:24:12;19.23;;;7.10;;
76610;SDS011;65503;48.534;9.062;2024-01-15T02:26:39;19.25;;;6.82;;
76610;SDS011;65503;48.534;9.062;2024-01-15T02:29:06;19.50;;;6.88;;
76610;SDS011;65503;48.534;9.062;2024-01-15T02:31:35;21.67;;;6.72;;
76610;SDS011;65503;48.534;9.062;2024-01-15T02:34:02;21.67;;;6.78;;
76610;SDS011;65503;48.534;9.062;2024-01-15T02:36:29;18.30;;;6.97;;
76610;SDS011;65503;48.534;9.062;2024-01-15T02:38:56;17.35;;;6.20;;
76610;SDS011;65503;48.534;9.062;2024-01-15T02:41:22;16.85;;;6.05;;
76610;SDS011;65503;48.534;9.062;2024-01-15T02:43:49;20.65;;;6.20;;
76610;SDS011;65503;48.534;9.062;2024-01-15T02:46:16;21.70;;;7.28;;
76610;SDS011;65503;48.534;9.062;2024-01-15T02:48:42;18.60;;;6.13;;
76610;SDS011;65503;48.534;9.062;2024-01-15T02:51:09;26.10;;;7.00;;
76610;SDS011;65503;48.534;9.062;2024-01-15T02:53:36;18.13;;;5.93;;
76610;SDS011;65503;48.534;9.062;2024-01-15T02:56:03;21.52;;;6.28;;
76610;SDS011;65503;48.534;9.062;2024-01-15T02:58:30;23.42;;;6.90;;
76610;SDS011;65503;48.534;9.062;2024-01-15T03:00:57;18.20;;;6.05;;
76610;SDS011;65503;48.534;9.062;2024-01-15T03:03:24;18.40;;;5.80;;
76610;SDS011;65503;48.534;9.062;2024-01-15T03:05:51;21.27;;;6.57;;
76610;SDS011;65503;48.534;9.062;2024-01-15T03:08:17;23.23;;;7.47;;
76610;SDS011;65503;48.534;9.062;2024-01-15T03:10:44;23.58;;;7.28;;
76610;SDS011;65503;48.534;9.062;2024-01-15T03:13:10;23.40;;;7.15;;
76610;SDS011;65503;48.534;9.062;2024-01-15T03:15:37;22.95;;;7.13;;
76610;SDS011;65503;48.534;9.062;2024-01-15T03:18:04;20.40;;;6.55;;
76610;SDS011;65503;48.534;9.062;2024-01-15T03:20:30;21.88;;;6.72;;
76610;SDS011;65503;48.534;9.062;2024-01-15T03:22:57;20.55;;;6.32;;
76610;SDS011;65503;48.534;9.062;2024-01-15T03:25:23;18.63;;;6.72;;
76610;SDS011;65503;48.534;9.062;2024-01-15T03:27:50;18.38;;;6.50;;
76610;SDS011;65503;48.534;9.062;2024-01-15T03:30:16;22.33;;;6.68;;
76610;SDS011;65503;48.534;9.062;2024-01-15T03:32:43;24.70;;;6.90;;
76610;SDS011;65503;48.534;9.062;2024-01-15T03:35:10;20.80;;;7.20;;
76610;SDS011;65503;48.534;9.062;2024-01-15T03:37:36;23.10;;;6.63;;
76610;SDS011;65503;48.534;9.062;2024-01-15T03:40:03;25.50;;;7.50;;
76610;SDS011;65503;48.534;9.062;2024-01-15T03:42:31;21.50;;;5.90;;
76610;SDS011;65503;48.534;9.062;2024-01-15T03:44:57;19.90;;;6.85;;
76610;SDS011;65503;48.534;9.062;2024-01-15T03:47:24;16.92;;;6.22;;
76610;SDS011;65503;48.534;9.062;2024-01-15T03:49:50;21.23;;;7.10;;
76610;SDS011;65503;48.534;9.062;2024-01-15T03:52:17;18.42;;;7.32;;
76610;SDS011;65503;48.534;9.062;2024-01-15T03:54:44;24.48;;;7.20;;
76610;SDS011;65503;48.534;9.062;2024-01-15T03:57:10;20.50;;;6.55;;
76610;SDS011;65503;48.534;9.062;2024-01-15T03:59:37;21.08;;;7.05;;
76610;SDS011;65503;48.534;9.062;2024-01-15T04:02:04;22.20;;;7.03;;
76610;SDS011;65503;48.534;9.062;2024-01-15T04:04:30;22.10;;;6.78;;
76610;SDS011;65503;48.534;9.062;2024-01-15T04:06:57;23.45;;;7.18;;
76610;SDS011;65503;48.534;9.062;2024-01-15T04:09:23;20.67;;;6.75;;
76610;SDS011;65503;48.534;9.062;2024-01-15T04:11:50;22.50;;;6.90;;
76610;SDS011;65503;48.534;9.062;2024-01-15T04:14:16;23.55;;;7.50;;
76610;SDS011;65503;48.534;9.062;2024-01-15T04:16:43;23.85;;;6.28;;
76610;SDS011;65503;48.534;9.062;2024-01-15T04:19:10;21.63;;;7.15;;
76610;SDS011;65503;48.534;9.062;2024-01-15T04:21:36;20.40;;;6.50;;
76610;SDS011;65503;48.534;9.062;2024-01-15T04:24:03;22.80;;;7.03;;
76610;SDS011;65503;48.534;9.062;2024-01-15T04:26:29;25.13;;;7.55;;
76610;SDS011;65503;48.534;9.062;2024-01-15T04:28:56;23.75;;;7.35;;
76610;SDS011;65503;48.534;9.062;2024-01-15T04:31:23;24.70;;;8.00;;
76610;SDS011;65503;48.534;9.062;2024-01-15T04:36:19;25.67;;;8.35;;
76610;SDS011;65503;48.534;9.062;2024-01-15T04:38:45;20.67;;;6.90;;
76610;SDS011;65503;48.534;9.062;2024-01-15T04:41:12;21.52;;;7.40;;
76610;SDS011;65503;48.534;9.062;2024-01-15T04:43:40;21.60;;;7.22;;
76610;SDS011;65503;48.534;9.062;2024-01-15T04:46:06;22.27;;;7.22;;
76610;SDS011;65503;48.534;9.062;2024-01-15T04:48:33;24.48;;;7.35;;
76610;SDS011;65503;48.534;9.062;2024-01-15T04:51:03;24.10;;;7.70;;
76610;SDS011;65503;48.534;9.062;2024-01-15T04:53:30;26.88;;;7.97;;
76610;SDS011;65503;48.534;9.062;2024-01-15T04:55:57;22.45;;;7.00;;
76610;SDS011;65503;48.534;9.062;2024-01-15T04:58:24;25.45;;;8.45;;
76610;SDS011;65503;48.534;9.062;2024-01-15T05:00:53;27.67;;;8.27;;
76610;SDS011;65503;48.534;9.062;2024-01-15T05:03:21;23.00;;;7.90;;
76610;SDS011;65503;48.534;9.062;2024-01-15T05:05:47;20.75;;;7.72;;
76610;SDS011;65503;48.534;9.062;2024-01-15T05:08:14;23.60;;;7.63;;
76610;SDS011;65503;48.534;9.062;2024-01-15T05:10:40;22.73;;;7.20;;
76610;SDS011;65503;48.534;9.062;2024-01-15T05:13:07;24.80;;;7.43;;
76610;SDS011;65503;48.534;9.062;2024-01-15T05:15:33;22.02;;;7.63;;
76610;SDS011;65503;48.534;9.062;2024-01-15T05:18:00;25.17;;;8.10;;
76610;SDS011;65503;48.534;9.062;2024-01-15T05:20:27;23.85;;;8.77;;
76610;SDS011;65503;48.534;9.062;2024-01-15T05:22:53;22.17;;;8.15;;
76610;SDS011;65503;48.534;9.062;2024-01-15T05:25:20;25.48;;;8.02;;
76610;SDS011;65503;48.534;9.062;2024-01-15T05:27:46;21.77;;;8.50;;
76610;SDS011;65503;48.534;9.062;2024-01-15T05:30:13;27.95;;;9.35;;
76610;SDS011;65503;48.534;9.062;2024-01-15T05:32:40;26.05;;;9.82;;
76610;SDS011;65503;48.534;9.062;2024-01-15T05:35:06;26.23;;;8.55;;
76610;SDS011;65503;48.534;9.062;2024-01-15T05:37:33;23.23;;;8.98;;
76610;SDS011;65503;48.534;9.062;2024-01-15T05:39:59;22.88;;;7.97;;
76610;SDS011;65503;48.534;9.062;2024-01-15T05:42:26;25.17;;;8.40;;
76610;SDS011;65503;48.534;9.062;2024-01-15T05:44:53;25.48;;;8.77;;
76610;SDS011;65503;48.534;9.062;2024-01-15T05:47:19;28.50;;;9.70;;
76610;SDS011;65503;48.534;9.062;2024-01-15T05:49:45;25.40;;;8.88;;
76610;SDS011;65503;48.534;9.062;2024-01-15T05:52:12;23.92;;;8.95;;
76610;SDS011;65503;48.534;9.062;2024-01-15T05:54:38;23.13;;;8.30;;
76610;SDS011;65503;48.534;9.062;2024-01-15T05:57:05;21.95;;;8.10;;
76610;SDS011;65503;48.534;9.062;2024-01-15T05:59:31;24.17;;;8.20;;
76610;SDS011;65503;48.534;9.062;2024-01-15T06:02:00;25.38;;;8.40;;
76610;SDS011;65503;48.534;9.062;2024-01-15T06:04:27;21.95;;;8.50;;
76610;SDS011;65503;48.534;9.062;2024-01-15T06:06:53;22.95;;;8.35;;
76610;SDS011;65503;48.534;9.062;2024-01-15T06:09:20;24.90;;;8.60;;
76610;SDS011;65503;48.534;9.062;2024-01-15T06:11:46;20.58;;;7.90;;
76610;SDS011;65503;48.534;9.062;2024-01-15T06:14:13;25.10;;;8.48;;
76610;SDS011;65503;48.534;9.062;2024-01-15T06:16:39;21.00;;;8.57;;
76610;SDS011;65503;48.534;9.062;2024-01-15T06:19:06;26.85;;;8.45;;
76610;SDS011;65503;48.534;9.062;2024-01-15T06:21:32;22.70;;;8.38;;
76610;SDS011;65503;48.534;9.062;2024-01-15T06:24:00;30.35;;;7.97;;
76610;SDS011;65503;48.534;9.062;2024-01-15T06:26:28;34.17;;;7.95;;
76610;SDS011;65503;48.534;9.062;2024-01-15T06:28:55;23.88;;;7.85;;
76610;SDS011;65503;48.534;9.062;2024-01-15T06:31:22;24.73;;;7.70;;
76610;SDS011;65503;48.534;9.062;2024-01-15T06:33:48;27.80;;;7.72;;
76610;SDS011;65503;48.534;9.062;2024-01-15T06:36:15;25.35;;;7.85;;
76610;SDS011;65503;48.534;9.062;2024-01-15T06:38:45;25.67;;;8.15;;
76610;SDS011;65503;48.534;9.062;2024-01-15T06:41:12;22.58;;;7.63;;
76610;SDS011;65503;48.534;9.062;2024-01-15T06:43:38;21.88;;;7.85;;
76610;SDS011;65503;48.534;9.062;2024-01-15T06:46:05;22.00;;;7.93;;
76610;SDS011;65503;48.534;9.062;2024-01-15T06:48:33;20.83;;;8.20;;
76610;SDS011;65503;48.534;9.062;2024-01-15T06:51:00;21.73;;;7.78;;
76610;SDS011;65503;48.534;9.062;2024-01-15T06:53:27;20.95;;;7.10;;
76610;SDS011;65503;48.534;9.062;2024-01-15T06:55:53;17.50;;;7.50;;
76610;SDS011;65503;48.534;9.062;2024-01-15T06:58:20;20.77;;;7.15;;
76610;SDS011;65503;48.534;9.062;2024-01-15T07:00:46;23.13;;;7.40;;
76610;SDS011;65503;48.534;9.062;2024-01-15T07:03:13;22.42;;;8.13;;
76610;SDS011;65503;48.534;9.062;2024-01-15T07:05:40;24.52;;;7.43;;
76610;SDS011;65503;48.534;9.062;2024-01-15T07:08:06;21.02;;;8.00;;
76610;SDS011;65503;48.534;9.062;2024-01-15T07:10:33;29.77;;;7.13;;
76610;SDS011;65503;48.534;9.062;2024-01-15T07:13:02;20.23;;;7.05;;
76610;SDS011;65503;48.534;9.062;2024-01-15T07:15:29;22.30;;;7.50;;
76610;SDS011;65503;48.534;9.062;2024-01-15T07:17:55;18.85;;;6.95;;
76610;SDS011;65503;48.534;9.062;2024-01-15T07:20:22;20.52;;;7.20;;
76610;SDS011;65503;48.534;9.062;2024-01-15T07:22:48;19.85;;;7.55;;
76610;SDS011;65503;48.534;9.062;2024-01-15T07:25:15;21.63;;;7.28;;
76610;SDS011;65503;48.534;9.062;2024-01-15T07:27:42;22.60;;;7.55;;
76610;SDS011;65503;48.534;9.062;2024-01-15T07:30:11;20.73;;;7.55;;
76610;SDS011;65503;48.534;9.062;2024-01-15T07:32:38;19.02;;;7.43;;
76610;SDS011;65503;48.534;9.062;2024-01-15T07:35:05;32.38;;;6.68;;
76610;SDS011;65503;48.534;9.062;2024-01-15T07:37:32;15.82;;;6.53;;
76610;SDS011;65503;48.534;9.062;2024-01-15T07:39:59;18.42;;;6.40;;
76610;SDS011;65503;48.534;9.062;2024-01-15T07:42:26;16.35;;;5.70;;
76610;SDS011;65503;48.534;9.062;2024-01-15T07:44:53;15.77;;;6.93;;
76610;SDS011;65503;48.534;9.062;2024-01-15T07:47:19;131.73;;;11.93;;
76610;SDS011;65503;48.534;9.062;2024-01-15T07:49:46;14.75;;;6.13;;
76610;SDS011;65503;48.534;9.062;2024-01-15T07:52:13;17.13;;;6.30;;
76610;SDS011;65503;48.534;9.062;2024-01-15T07:54:40;19.38;;;6.00;;
76610;SDS011;65503;48.534;9.062;2024-01-15T07:57:06;38.60;;;8.45;;
76610;SDS011;65503;48.534;9.062;2024-01-15T07:59:34;32.33;;;6.15;;
76610;SDS011;65503;48.534;9.062;2024-01-15T08:02:01;20.30;;;6.40;;
76610;SDS011;65503;48.534;9.062;2024-01-15T08:04:28;20.55;;;6.35;;
76610;SDS011;65503;48.534;9.062;2024-01-15T08:06:55;20.27;;;6.90;;
76610;SDS011;65503;48.534;9.062;2024-01-15T08:09:23;20.08;;;5.93;;
76610;SDS011;65503;48.534;9.062;2024-01-15T08:11:49;15.40;;;5.15;;
76610;SDS011;65503;48.534;9.062;2024-01-15T08:14:16;17.77;;;6.15;;
76610;SDS011;65503;48.534;9.062;2024-01-15T08:16:42;15.60;;;6.13;;
76610;SDS011;65503;48.534;9.062;2024-01-15T08:19:10;30.45;;;6.00;;
76610;SDS011;65503;48.534;9.062;2024-01-15T08:21:36;17.50;;;5.05;;
76610;SDS011;65503;48.534;9.062;2024-01-15T08:24:03;21.52;;;6.22;;
76610;SDS011;65503;48.534;9.062;2024-01-15T08:26:30;26.42;;;5.47;;
76610;SDS011;65503;48.534;9.062;2024-01-15T08:28:56;18.90;;;5.25;;
76610;SDS011;65503;48.534;9.062;2024-01-15T08:31:23;18.48;;;6.13;;
76610;SDS011;65503;48.534;9.062;2024-01-15T08:33:50;11.65;;;4.75;;
76610;SDS011;65503;48.534;9.062;2024-01-15T08:36:17;15.48;;;5.05;;
76610;SDS011;65503;48.534;9.062;2024-01-15T08:38:44;12.32;;;4.22;;
76610;SDS011;65503;48.534;9.062;2024-01-15T08:41:11;14.43;;;5.07;;
76610;SDS011;65503;48.534;9.062;2024-01-15T08:43:37;14.38;;;4.60;;
76610;SDS011;65503;48.534;9.062;2024-01-15T08:46:04;18.02;;;6.03;;
76610;SDS011;65503;48.534;9.062;2024-01-15T08:48:31;15.20;;;4.60;;
76610;SDS011;65503;48.534;9.062;2024-01-15T08:50:57;12.40;;;4.88;;
76610;SDS011;65503;48.534;9.062;2024-01-15T08:53:24;12.98;;;4.53;;
76610;SDS011;65503;48.534;9.062;2024-01-15T08:55:50;14.38;;;4.80;;
76610;SDS011;65503;48.534;9.062;2024-01-15T08:58:17;14.75;;;4.95;;
76610;SDS011;65503;48.534;9.062;2024-01-15T09:00:44;11.02;;;3.95;;
76610;SDS011;65503;48.534;9.062;2024-01-15T09:03:11;15.40;;;4.75;;
76610;SDS011;65503;48.534;9.062;2024-01-15T09:05:38;14.95;;;5.20;;
76610;SDS011;65503;48.534;9.062;2024-01-15T09:08:04;14.48;;;4.88;;
76610;SDS011;65503;48.534;9.062;2024-01-15T09:10:31;11.13;;;4.15;;
76610;SDS011;65503;48.534;9.062;2024-01-15T09:12:58;11.23;;;4.45;;
76610;SDS011;65503;48.534;9.062;2024-01-15T09:15:25;13.00;;;3.97;;
76610;SDS011;65503;48.534;9.062;2024-01-15T09:17:52;14.80;;;4.40;;
76610;SDS011;65503;48.534;9.062;2024-01-15T09:20:18;13.13;;;4.30;;
76610;SDS011;65503;48.534;9.062;2024-01-15T09:22:44;11.35;;;4.25;;
76610;SDS011;65503;48.534;9.062;2024-01-15T09:25:11;12.90;;;4.72;;
76610;SDS011;65503;48.534;9.062;2024-01-15T09:27:38;13.00;;;4.35;;
76610;SDS011;65503;48.534;9.062;2024-01-15T09:30:05;13.85;;;4.30;;
76610;SDS011;65503;48.534;9.062;2024-01-15T09:32:32;17.42;;;5.35;;
76610;SDS011;65503;48.534;9.062;2024-01-15T09:34:59;13.52;;;4.47;;
76610;SDS011;65503;48.534;9.062;2024-01-15T09:37:25;11.35;;;3.97;;
76610;SDS011;65503;48.534;9.062;2024-01-15T09:40:12;10.63;;;3.80;;
76610;SDS011;65503;48.534;9.062;2024-01-15T09:42:41;13.15;;;4.22;;
76610;SDS011;65503;48.534;9.062;2024-01-15T09:45:09;10.38;;;3.78;;
76610;SDS011;65503;48.534;9.062;2024-01-15T09:47:36;10.13;;;3.75;;
76610;SDS011;65503;48.534;9.062;2024-01-15T09:50:07;12.98;;;5.70;;
76610;SDS011;65503;48.534;9.062;2024-01-15T09:52:35;10.20;;;3.65;;
76610;SDS011;65503;48.534;9.062;2024-01-15T09:55:02;7.65;;;3.58;;
76610;SDS011;65503;48.534;9.062;2024-01-15T09:57:31;13.00;;;5.03;;
76610;SDS011;65503;48.534;9.062;2024-01-15T09:59:59;17.58;;;5.93;;
76610;SDS011;65503;48.534;9.062;2024-01-15T10:02:30;15.73;;;4.32;;
76610;SDS011;65503;48.534;9.062;2024-01-15T10:04:57;11.55;;;4.32;;
76610;SDS011;65503;48.534;9.062;2024-01-15T10:07:24;12.30;;;4.70;;
76610;SDS011;65503;48.534;9.062;2024-01-15T10:09:51;12.38;;;3.53;;
76610;SDS011;65503;48.534;9.062;2024-01-15T10:12:18;8.93;;;3.22;;
76610;SDS011;65503;48.534;9.062;2024-01-15T10:14:45;9.13;;;3.00;;
76610;SDS011;65503;48.534;9.062;2024-01-15T10:17:12;9.75;;;2.78;;
76610;SDS011;65503;48.534;9.062;2024-01-15T10:19:40;6.68;;;2.28;;
76610;SDS011;65503;48.534;9.062;2024-01-15T10:22:10;14.35;;;2.75;;
76610;SDS011;65503;48.534;9.062;2024-01-15T10:24:37;10.35;;;2.95;;
76610;SDS011;65503;48.534;9.062;2024-01-15T10:27:06;23.88;;;4.32;;
76610;SDS011;65503;48.534;9.062;2024-01-15T10:29:35;14.25;;;2.88;;
76610;SDS011;65503;48.534;9.062;2024-01-15T10:32:03;8.98;;;2.95;;
76610;SDS011;65503;48.534;9.062;2024-01-15T10:34:32;15.05;;;3.10;;
76610;SDS011;65503;48.534;9.062;2024-01-15T10:36:59;17.77;;;2.72;;
76610;SDS011;65503;48.534;9.062;2024-01-15T10:39:25;19.40;;;3.55;;
76610;SDS011;65503;48.534;9.062;2024-01-15T10:41:52;31.30;;;4.13;;
76610;SDS011;65503;48.534;9.062;2024-01-15T10:44:19;14.30;;;3.15;;
76610;SDS011;65503;48.534;9.062;2024-01-15T10:46:46;6.32;;;2.85;;
76610;SDS011;65503;48.534;9.062;2024-01-15T10:49:13;7.65;;;2.53;;
76610;SDS011;65503;48.534;9.062;2024-01-15T10:51:41;52.55;;;5.90;;
76610;SDS011;65503;48.534;9.062;2024-01-15T10:54:08;55.60;;;5.00;;
76610;SDS011;65503;48.534;9.062;2024-01-15T10:56:37;23.67;;;3.10;;
76610;SDS011;65503;48.534;9.062;2024-01-15T10:59:05;33.88;;;4.60;;
76610;SDS011;65503;48.534;9.062;2024-01-15T11:01:33;63.53;;;4.75;;
76610;SDS011;65503;48.534;9.062;2024-01-15T11:04:01;23.00;;;3.78;;
76610;SDS011;65503;48.534;9.062;2024-01-15T11:06:28;88.25;;;5.70;;
76610;SDS011;65503;48.534;9.062;2024-01-15T11:09:07;18.33;;;2.97;;
76610;SDS011;65503;48.534;9.062;2024-01-15T11:11:40;50.08;;;4.55;;
76610;SDS011;65503;48.534;9.062;2024-01-15T11:14:07;4.80;;;2.40;;
76610;SDS011;65503;48.534;9.062;2024-01-15T11:19:22;8.00;;;2.25;;
76610;SDS011;65503;48.534;9.062;2024-01-15T11:21:49;5.97;;;2.80;;
76610;SDS011;65503;48.534;9.062;2024-01-15T11:24:35;8.20;;;2.95;;
76610;SDS011;65503;48.534;9.062;2024-01-15T11:27:03;9.27;;;3.53;;
76610;SDS011;65503;48.534;9.062;2024-01-15T11:29:31;9.07;;;3.28;;
76610;SDS011;65503;48.534;9.062;2024-01-15T11:32:04;12.45;;;3.67;;
76610;SDS011;65503;48.534;9.062;2024-01-15T11:34:51;7.68;;;2.78;;
76610;SDS011;65503;48.534;9.062;2024-01-15T11:37:25;6.57;;;2.85;;
76610;SDS011;65503;48.534;9.062;2024-01-15T11:39:53;9.38;;;3.33;;
76610;SDS011;65503;48.534;9.062;2024-01-15T11:42:21;13.27;;;3.35;;
76610;SDS011;65503;48.534;9.062;2024-01-15T11:44:49;8.65;;;3.42;;
76610;SDS011;65503;48.534;9.062;2024-01-15T11:47:16;7.13;;;2.60;;
76610;SDS011;65503;48.534;9.062;2024-01-15T11:50:03;8.50;;;3.08;;
76610;SDS011;65503;48.534;9.062;2024-01-15T11:52:35;9.65;;;3.50;;
76610;SDS011;65503;48.534;9.062;2024-01-15T11:55:16;13.43;;;4.15;;
76610;SDS011;65503;48.534;9.062;2024-01-15T11:57:52;10.00;;;3.35;;
76610;SDS011;65503;48.534;9.062;2024-01-15T12:00:21;10.88;;;3.17;;
76610;SDS011;65503;48.534;9.062;2024-01-15T12:02:49;8.60;;;3.40;;
76610;SDS011;65503;48.534;9.062;2024-01-15T12:05:17;9.48;;;3.70;;
76610;SDS011;65503;48.534;9.062;2024-01-15T12:07:46;8.70;;;3.17;;
76610;SDS011;65503;48.534;9.062;2024-01-15T12:10:15;11.48;;;3.20;;
76610;SDS011;65503;48.534;9.062;2024-01-15T12:12:58;12.23;;;3.88;;
76610;SDS011;65503;48.534;9.062;2024-01-15T12:15:41;11.82;;;3.67;;
76610;SDS011;65503;48.534;9.062;2024-01-15T12:18:09;15.45;;;3.88;;
76610;SDS011;65503;48.534;9.062;2024-01-15T12:20:39;14.23;;;3.92;;
76610;SDS011;65503;48.534;9.062;2024-01-15T12:23:05;9.70;;;3.67;;
76610;SDS011;65503;48.534;9.062;2024-01-15T12:25:34;10.68;;;3.45;;
76610;SDS011;65503;48.534;9.062;2024-01-15T12:28:02;7.65;;;3.25;;
76610;SDS011;65503;48.534;9.062;2024-01-15T12:30:29;11.13;;;3.40;;
76610;SDS011;65503;48.534;9.062;2024-01-15T12:33:01;7.38;;;3.60;;
76610;SDS011;65503;48.534;9.062;2024-01-15T12:35:30;8.88;;;3.55;;
76610;SDS011;65503;48.534;9.062;2024-01-15T12:37:56;17.40;;;4.40;;
76610;SDS011;65503;48.534;9.062;2024-01-15T12:40:23;15.18;;;3.80;;
76610;SDS011;65503;48.534;9.062;2024-01-15T12:42:50;21.95;;;4.88;;
76610;SDS011;65503;48.534;9.062;2024-01-15T12:45:17;14.43;;;3.75;;
76610;SDS011;65503;48.534;9.062;2024-01-15T12:47:44;12.63;;;4.53;;
76610;SDS011;65503;48.534;9.062;2024-01-15T12:50:11;31.45;;;4.90;;
76610;SDS011;65503;48.534;9.062;2024-01-15T12:52:45;41.35;;;5.97;;
76610;SDS011;65503;48.534;9.062;2024-01-15T12:55:13;9.35;;;4.18;;
76610;SDS011;65503;48.534;9.062;2024-01-15T12:57:39;20.63;;;5.05;;
76610;SDS011;65503;48.534;9.062;2024-01-15T13:00:06;27.17;;;5.45;;
76610;SDS011;65503;48.534;9.062;2024-01-15T13:02:40;14.75;;;4.47;;
76610;SDS011;65503;48.534;9.062;2024-01-15T13:05:08;11.82;;;4.43;;
76610;SDS011;65503;48.534;9.062;2024-01-15T13:07:38;15.23;;;4.50;;
76610;SDS011;65503;48.534;9.062;2024-01-15T13:10:05;31.90;;;5.80;;
76610;SDS011;65503;48.534;9.062;2024-01-15T13:12:33;55.72;;;7.53;;
76610;SDS011;65503;48.534;9.062;2024-01-15T13:15:00;43.88;;;7.15;;
76610;SDS011;65503;48.534;9.062;2024-01-15T13:17:29;30.67;;;5.72;;
76610;SDS011;65503;48.534;9.062;2024-01-15T13:19:56;23.45;;;6.22;;
76610;SDS011;65503;48.534;9.062;2024-01-15T13:22:23;32.88;;;5.93;;
76610;SDS011;65503;48.534;9.062;2024-01-15T13:24:55;18.13;;;5.35;;
76610;SDS011;65503;48.534;9.062;2024-01-15T13:27:22;24.42;;;5.60;;
76610;SDS011;65503;48.534;9.062;2024-01-15T13:29:48;15.10;;;5.68;;
76610;SDS011;65503;48.534;9.062;2024-01-15T13:32:16;22.23;;;5.97;;
76610;SDS011;65503;48.534;9.062;2024-01-15T13:34:48;10.88;;;4.93;;
76610;SDS011;65503;48.534;9.062;2024-01-15T13:37:15;16.45;;;5.25;;
76610;SDS011;65503;48.534;9.062;2024-01-15T13:39:41;14.98;;;5.32;;
76610;SDS011;65503;48.534;9.062;2024-01-15T13:42:08;19.63;;;6.13;;
76610;SDS011;65503;48.534;9.062;2024-01-15T13:44:37;19.50;;;6.68;;
76610;SDS011;65503;48.534;9.062;2024-01-15T13:47:04;18.65;;;7.15;;
76610;SDS011;65503;48.534;9.062;2024-01-15T13:49:31;18.67;;;5.50;;
76610;SDS011;65503;48.534;9.062;2024-01-15T13:52:00;15.50;;;5.70;;
76610;SDS011;65503;48.534;9.062;2024-01-15T13:54:27;19.38;;;6.40;;
76610;SDS011;65503;48.534;9.062;2024-01-15T13:57:11;25.27;;;5.93;;
76610;SDS011;65503;48.534;9.062;2024-01-15T13:59:37;25.30;;;6.20;;
76610;SDS011;65503;48.534;9.062;2024-01-15T14:02:04;14.27;;;6.18;;
76610;SDS011;65503;48.534;9.062;2024-01-15T14:04:31;16.75;;;6.10;;
76610;SDS011;65503;48.534;9.062;2024-01-15T14:06:57;26.13;;;7.70;;
76610;SDS011;65503;48.534;9.062;2024-01-15T14:09:24;22.73;;;6.78;;
76610;SDS011;65503;48.534;9.062;2024-01-15T14:11:51;17.98;;;6.22;;
76610;SDS011;65503;48.534;9.062;2024-01-15T14:14:18;21.15;;;6.55;;
76610;SDS011;65503;48.534;9.062;2024-01-15T14:16:44;20.30;;;6.47;;
76610;SDS011;65503;48.534;9.062;2024-01-15T14:19:11;21.35;;;7.05;;
76610;SDS011;65503;48.534;9.062;2024-01-15T14:21:38;18.15;;;6.38;;
76610;SDS011;65503;48.534;9.062;2024-01-15T14:24:05;22.50;;;7.40;;
76610;SDS011;65503;48.534;9.062;2024-01-15T14:26:33;86.95;;;10.23;;
76610;SDS011;65503;48.534;9.062;2024-01-15T14:29:00;67.22;;;12.50;;
76610;SDS011;65503;48.534;9.062;2024-01-15T14:31:26;25.48;;;7.28;;
76610;SDS011;65503;48.534;9.062;2024-01-15T14:33:54;69.15;;;9.57;;
76610;SDS011;65503;48.534;9.062;2024-01-15T14:36:21;80.43;;;9.73;;
76610;SDS011;65503;48.534;9.062;2024-01-15T14:38:48;46.53;;;7.85;;
76610;SDS011;65503;48.534;9.062;2024-01-15T14:41:15;18.25;;;6.30;;
76610;SDS011;65503;48.534;9.062;2024-01-15T14:43:43;18.80;;;6.32;;
76610;SDS011;65503;48.534;9.062;2024-01-15T14:46:09;21.30;;;6.70;;